createdAt,value
2023-04-23T00:01:29.179Z,61.12
2023-04-23T00:06:34.725Z,61.46
2023-04-23T00:11:39.021Z,61.07
2023-04-23T00:16:43.497Z,60.92
2023-04-23T00:21:47.618Z,61.15
2023-04-23T00:26:53.982Z,60.93
2023-04-23T00:31:59.199Z,61.08
2023-04-23T00:37:07.108Z,60.38
2023-04-23T00:42:13.131Z,59.99
2023-04-23T00:47:19.083Z,59.47
2023-04-23T00:52:23.480Z,58.84
2023-04-23T00:57:28.387Z,57.95
2023-04-23T01:02:32.978Z,57.05
2023-04-23T01:07:38.642Z,57.48
2023-04-23T01:12:42.584Z,56.46
2023-04-23T01:17:47.231Z,56.13
2023-04-23T01:22:54.851Z,55.62
2023-04-23T01:27:59.468Z,54.20
2023-04-23T01:33:06.312Z,53.79
2023-04-23T01:38:12.678Z,52.97
2023-04-23T01:43:18.222Z,51.67
2023-04-23T01:48:22.555Z,50.89
2023-04-23T01:53:26.662Z,50.11
2023-04-23T01:58:30.685Z,49.02
2023-04-23T02:03:35.484Z,48.40
2023-04-23T02:08:40.699Z,47.05
2023-04-23T02:13:44.724Z,47.01
2023-04-23T02:18:48.681Z,45.73
2023-04-23T02:23:54.362Z,44.78
2023-04-23T02:28:58.339Z,44.49
2023-04-23T02:34:02.513Z,44.89
2023-04-23T02:39:07.285Z,43.76
2023-04-23T02:44:11.423Z,42.79
2023-04-23T02:49:15.527Z,42.62
2023-04-23T02:54:19.727Z,41.95
2023-04-23T02:59:24.116Z,41.29
2023-04-23T03:04:28.475Z,40.70
2023-04-23T03:09:32.917Z,40.03
2023-04-23T03:14:37.198Z,39.98
2023-04-23T03:19:41.945Z,38.92
2023-04-23T03:24:46.844Z,38.57
2023-04-23T03:30:10.681Z,38.05
2023-04-23T03:35:14.849Z,38.01
2023-04-23T03:40:22.849Z,37.33
2023-04-23T03:45:31.984Z,37.27
2023-04-23T03:50:39.706Z,36.62
2023-04-23T03:56:01.164Z,36.11
2023-04-23T04:01:08.435Z,35.89
2023-04-23T04:06:12.844Z,35.26
2023-04-23T04:11:17.013Z,35.25
2023-04-23T04:16:21.020Z,34.86
2023-04-23T04:21:25.117Z,34.94
2023-04-23T04:26:30.264Z,33.92
2023-04-23T04:31:35.612Z,34.12
2023-04-23T04:36:40.062Z,33.71
2023-04-23T04:41:44.378Z,34.17
2023-04-23T04:46:48.943Z,34.08
2023-04-23T04:51:54.938Z,34.15
2023-04-23T04:56:58.820Z,33.35
2023-04-23T05:02:02.820Z,33.23
2023-04-23T05:07:06.908Z,32.65
2023-04-23T05:12:10.846Z,31.96
2023-04-23T05:17:14.768Z,30.83
2023-04-23T05:22:18.917Z,31.17
2023-04-23T05:27:23.062Z,31.19
2023-04-23T05:32:27.362Z,31.04
2023-04-23T05:37:31.743Z,31.39
2023-04-23T05:42:37.691Z,31.11
2023-04-23T05:47:41.928Z,31.09
2023-04-23T05:52:46.227Z,31.30
2023-04-23T05:57:50.242Z,31.49
2023-04-23T06:02:54.719Z,31.79
2023-04-23T06:07:59.439Z,31.65
2023-04-23T06:13:03.787Z,31.75
2023-04-23T06:18:08.051Z,31.78
2023-04-23T06:23:14.265Z,32.00
2023-04-23T06:28:18.181Z,31.48
2023-04-23T06:33:48.009Z,31.65
2023-04-23T06:38:52.224Z,31.48
2023-04-23T06:43:56.622Z,31.92
2023-04-23T06:49:13.282Z,31.70
2023-04-23T06:54:17.328Z,31.87
2023-04-23T06:59:21.492Z,30.85
2023-04-23T07:04:29.672Z,29.74
2023-04-23T07:09:33.823Z,29.15
2023-04-23T07:14:37.866Z,28.89
2023-04-23T07:19:41.720Z,29.03
2023-04-23T07:24:45.910Z,28.93
2023-04-23T07:29:49.859Z,28.13
2023-04-23T07:34:53.921Z,28.14
2023-04-23T07:39:58.173Z,28.01
2023-04-23T07:45:02.386Z,27.24
2023-04-23T07:50:08.984Z,27.25
2023-04-23T07:55:12.805Z,27.54
2023-04-23T08:00:17.197Z,27.56
2023-04-23T08:05:21.282Z,27.48
2023-04-23T08:10:25.468Z,26.82
2023-04-23T08:15:29.486Z,27.01
2023-04-23T08:20:33.728Z,28.09
2023-04-23T08:25:37.787Z,28.14
2023-04-23T08:30:41.885Z,27.56
2023-04-23T08:35:45.875Z,27.87
2023-04-23T08:40:52.284Z,28.24
2023-04-23T08:45:57.388Z,28.46
2023-04-23T08:51:04.835Z,28.17
2023-04-23T08:56:09.473Z,28.16
2023-04-23T09:01:15.461Z,28.03
2023-04-23T09:06:21.445Z,28.02
2023-04-23T09:11:28.065Z,28.42
2023-04-23T09:16:32.268Z,28.46
2023-04-23T09:21:40.703Z,28.58
2023-04-23T09:26:53.231Z,28.51
2023-04-23T09:32:03.855Z,27.88
2023-04-23T09:37:12.721Z,27.96
2023-04-23T09:42:17.242Z,27.17
2023-04-23T09:47:22.596Z,27.05
2023-04-23T09:52:30.243Z,26.31
2023-04-23T09:57:42.112Z,27.07
2023-04-23T10:02:50.773Z,28.12
2023-04-23T10:07:56.024Z,28.49
2023-04-23T10:13:01.105Z,28.71
2023-04-23T10:18:08.676Z,28.72
2023-04-23T10:23:13.792Z,29.11
2023-04-23T10:28:27.447Z,29.73
2023-04-23T10:33:37.650Z,29.97
2023-04-23T10:38:57.959Z,30.06
2023-04-23T10:44:07.965Z,29.98
2023-04-23T10:49:15.666Z,30.12
2023-04-23T10:54:21.028Z,29.87
2023-04-23T10:59:25.868Z,29.70
2023-04-23T11:04:31.122Z,29.67
2023-04-23T11:10:00.477Z,29.82
2023-04-23T11:15:20.165Z,29.85
2023-04-23T11:20:25.243Z,29.94
2023-04-23T11:25:31.147Z,30.03
2023-04-23T11:30:35.289Z,29.90
2023-04-23T11:35:41.971Z,29.57
2023-04-23T11:40:49.462Z,29.70
2023-04-23T11:45:53.663Z,29.91
2023-04-23T11:50:58.072Z,29.97
2023-04-23T11:56:02.030Z,29.79
2023-04-23T12:01:06.182Z,29.87
2023-04-23T12:06:10.277Z,30.17
2023-04-23T12:11:14.702Z,30.23
2023-04-23T12:16:18.782Z,30.75
2023-04-23T12:21:24.720Z,30.72
2023-04-23T12:26:30.440Z,30.82
2023-04-23T12:31:34.798Z,30.95
2023-04-23T12:36:41.637Z,31.32
2023-04-23T12:41:45.996Z,31.20
2023-04-23T12:47:04.093Z,31.76
2023-04-23T12:52:12.099Z,31.58
2023-04-23T12:57:22.487Z,32.14
2023-04-23T13:02:27.098Z,33.42
2023-04-23T13:07:31.164Z,33.57
2023-04-23T13:12:35.349Z,33.39
2023-04-23T13:17:39.718Z,34.26
2023-04-23T13:22:43.784Z,34.04
2023-04-23T13:27:47.879Z,34.53
2023-04-23T13:32:51.848Z,34.25
2023-04-23T13:37:56.173Z,34.79
2023-04-23T13:43:00.133Z,34.70
2023-04-23T13:48:05.888Z,35.61
2023-04-23T13:53:11.653Z,36.36
2023-04-23T13:58:15.936Z,37.51
2023-04-23T14:03:21.061Z,38.20
2023-04-23T14:08:25.175Z,39.23
2023-04-23T14:13:29.345Z,38.46
2023-04-23T14:18:33.621Z,38.58
2023-04-23T14:23:37.860Z,39.70
2023-04-23T14:28:49.130Z,40.75
2023-04-23T14:33:53.129Z,40.46
2023-04-23T14:39:00.007Z,40.30
2023-04-23T14:44:04.607Z,41.43
2023-04-23T14:49:08.672Z,41.95
2023-04-23T14:54:12.795Z,42.31
2023-04-23T14:59:16.904Z,42.31
2023-04-23T15:04:21.156Z,42.87
2023-04-23T15:09:25.838Z,43.06
2023-04-23T15:14:37.653Z,43.59
2023-04-23T15:19:41.831Z,44.00
2023-04-23T15:24:45.966Z,44.24
2023-04-23T15:29:50.002Z,44.35
2023-04-23T15:34:54.483Z,44.92
2023-04-23T15:39:59.238Z,45.51
2023-04-23T15:45:04.781Z,45.95
2023-04-23T15:50:10.900Z,45.66
2023-04-23T15:55:15.002Z,45.70
2023-04-23T16:00:19.911Z,46.38
2023-04-23T16:05:25.795Z,46.70
2023-04-23T16:10:32.391Z,46.88
2023-04-23T16:15:37.215Z,46.96
2023-04-23T16:20:41.856Z,47.51
2023-04-23T16:25:46.064Z,47.38
2023-04-23T16:30:50.004Z,47.78
2023-04-23T16:35:54.877Z,48.31
2023-04-23T16:40:59.188Z,48.49
2023-04-23T16:46:03.090Z,48.19
2023-04-23T16:51:07.191Z,48.56
2023-04-23T16:56:11.582Z,49.01
2023-04-23T17:01:18.493Z,48.96
2023-04-23T17:06:31.298Z,49.60
2023-04-23T17:11:35.925Z,49.00
2023-04-23T17:16:40.004Z,48.90
2023-04-23T17:21:44.248Z,49.23
2023-04-23T17:26:48.893Z,49.26
2023-04-23T17:31:52.987Z,49.13
2023-04-23T17:36:57.582Z,48.74
2023-04-23T17:42:02.819Z,47.50
2023-04-23T17:47:06.969Z,46.93
2023-04-23T17:52:11.175Z,46.49
2023-04-23T17:57:15.386Z,45.63
2023-04-23T18:02:19.631Z,45.22
2023-04-23T18:07:23.790Z,44.27
2023-04-23T18:12:29.471Z,44.63
2023-04-23T18:17:33.293Z,43.73
2023-04-23T18:22:39.000Z,43.69
2023-04-23T18:27:42.842Z,43.07
2023-04-23T18:32:56.440Z,43.57
2023-04-23T18:38:11.127Z,42.15
2023-04-23T18:43:15.216Z,42.42
2023-04-23T18:48:42.486Z,41.93
2023-04-23T18:53:47.654Z,41.24
2023-04-23T18:58:51.807Z,40.86
2023-04-23T19:03:57.407Z,40.79
2023-04-23T19:09:02.148Z,40.31
2023-04-23T19:14:06.378Z,40.40
2023-04-23T19:19:10.286Z,40.21
2023-04-23T19:24:14.313Z,40.29
2023-04-23T19:29:18.497Z,39.99
2023-04-23T19:34:22.632Z,40.17
2023-04-23T19:39:27.757Z,39.39
2023-04-23T19:44:31.775Z,39.21
2023-04-23T19:49:35.850Z,39.60
2023-04-23T19:54:39.798Z,39.94
2023-04-23T19:59:44.201Z,39.35
2023-04-23T20:04:48.294Z,39.57
2023-04-23T20:09:52.412Z,39.35
2023-04-23T20:14:56.958Z,39.26
2023-04-23T20:20:02.554Z,38.90
2023-04-23T20:25:08.857Z,39.14
2023-04-23T20:30:15.868Z,39.80
2023-04-23T20:35:19.816Z,38.88
2023-04-23T20:40:24.102Z,38.99
2023-04-23T20:45:28.610Z,38.89
2023-04-23T20:50:32.550Z,38.61
2023-04-23T20:55:37.711Z,40.06
2023-04-23T21:00:42.515Z,40.21
2023-04-23T21:05:46.524Z,40.31
2023-04-23T21:10:50.707Z,40.37
2023-04-23T21:15:54.819Z,41.01
2023-04-23T21:20:59.041Z,41.52
2023-04-23T21:26:03.261Z,41.79
2023-04-23T21:31:15.040Z,41.73
2023-04-23T21:36:19.072Z,41.67
2023-04-23T21:41:23.035Z,41.68
2023-04-23T21:46:27.609Z,41.04
2023-04-23T21:51:31.625Z,41.89
2023-04-23T21:56:36.375Z,41.29
2023-04-23T22:01:40.346Z,41.16
2023-04-23T22:06:45.158Z,41.03
2023-04-23T22:12:00.987Z,41.12
2023-04-23T22:17:08.310Z,41.16
2023-04-23T22:22:12.270Z,41.33
2023-04-23T22:27:16.454Z,41.44
2023-04-23T22:32:20.396Z,41.23
2023-04-23T22:37:25.008Z,41.61
2023-04-23T22:42:29.197Z,41.65
2023-04-23T22:47:33.711Z,42.14
2023-04-23T22:52:37.661Z,41.94
2023-04-23T22:57:41.587Z,41.83
2023-04-23T23:02:45.867Z,42.55
2023-04-23T23:07:50.014Z,42.54
2023-04-23T23:12:54.217Z,42.28
2023-04-23T23:17:58.508Z,42.36
2023-04-23T23:23:02.502Z,42.71
2023-04-23T23:28:06.731Z,43.56
2023-04-23T23:33:10.791Z,43.46
2023-04-23T23:38:14.812Z,43.30
2023-04-23T23:43:18.992Z,43.18
2023-04-23T23:48:23.057Z,43.93
2023-04-23T23:53:27.334Z,43.96
2023-04-23T23:58:31.442Z,43.66
